sensor_id;sensor_type;location;lat;lon;timestamp;temperature;humidity
23188;DHT22;11762;59.878;17.686;2023-02-18T02:23:46;1.40;99.90
23188;DHT22;11762;59.878;17.686;2023-02-18T02:26:51;1.40;99.90
23188;DHT22;11762;59.878;17.686;2023-02-18T02:32:55;1.40;99.90
23188;DHT22;11762;59.878;17.686;2023-02-18T02:35:29;1.40;99.90
23188;DHT22;11762;59.878;17.686;2023-02-18T02:38:02;1.40;99.90
23188;DHT22;11762;59.878;17.686;2023-02-18T02:40:35;1.40;99.90
23188;DHT22;11762;59.878;17.686;2023-02-18T02:43:11;1.40;99.90
23188;DHT22;11762;59.878;17.686;2023-02-18T02:45:49;1.40;99.90
23188;DHT22;11762;59.878;17.686;2023-02-18T02:48:28;1.40;99.90
23188;DHT22;11762;59.878;17.686;2023-02-18T02:51:04;1.40;99.90
23188;DHT22;11762;59.878;17.686;2023-02-18T02:53:35;1.40;99.90
23188;DHT22;11762;59.878;17.686;2023-02-18T02:56:02;1.40;99.90
23188;DHT22;11762;59.878;17.686;2023-02-18T02:58:30;1.40;99.90
23188;DHT22;11762;59.878;17.686;2023-02-18T03:01:14;1.40;99.90
23188;DHT22;11762;59.878;17.686;2023-02-18T03:04:03;1.50;99.90
23188;DHT22;11762;59.878;17.686;2023-02-18T03:09:38;1.40;99.90
23188;DHT22;11762;59.878;17.686;2023-02-18T03:12:13;1.40;99.90
23188;DHT22;11762;59.878;17.686;2023-02-18T03:14:47;1.40;99.90
23188;DHT22;11762;59.878;17.686;2023-02-18T03:17:22;1.40;99.90
23188;DHT22;11762;59.878;17.686;2023-02-18T03:19:55;1.40;99.90
23188;DHT22;11762;59.878;17.686;2023-02-18T03:22:28;1.40;99.90
23188;DHT22;11762;59.878;17.686;2023-02-18T03:24:57;1.30;99.90
23188;DHT22;11762;59.878;17.686;2023-02-18T03:27:29;1.30;99.90
23188;DHT22;11762;59.878;17.686;2023-02-18T03:29:59;1.40;99.90
23188;DHT22;11762;59.878;17.686;2023-02-18T03:32:28;1.30;99.90
23188;DHT22;11762;59.878;17.686;2023-02-18T03:35:05;1.30;99.90
23188;DHT22;11762;59.878;17.686;2023-02-18T03:37:39;1.30;99.90
23188;DHT22;11762;59.878;17.686;2023-02-18T03:40:09;1.30;99.90
23188;DHT22;11762;59.878;17.686;2023-02-18T03:42:37;1.30;99.90
23188;DHT22;11762;59.878;17.686;2023-02-18T03:45:04;1.30;99.90
23188;DHT22;11762;59.878;17.686;2023-02-18T03:47:32;1.20;99.90
23188;DHT22;11762;59.878;17.686;2023-02-18T03:49:59;1.20;99.90
23188;DHT22;11762;59.878;17.686;2023-02-18T03:52:26;1.20;99.90
23188;DHT22;11762;59.878;17.686;2023-02-18T03:54:54;1.20;99.90
23188;DHT22;11762;59.878;17.686;2023-02-18T03:57:21;1.20;99.90
23188;DHT22;11762;59.878;17.686;2023-02-18T03:59:48;1.20;99.90
23188;DHT22;11762;59.878;17.686;2023-02-18T04:02:15;1.20;99.90
23188;DHT22;11762;59.878;17.686;2023-02-18T04:04:42;1.20;99.90
23188;DHT22;11762;59.878;17.686;2023-02-18T04:07:09;1.20;99.90
23188;DHT22;11762;59.878;17.686;2023-02-18T04:09:36;1.20;99.90
23188;DHT22;11762;59.878;17.686;2023-02-18T04:12:05;1.20;99.90
23188;DHT22;11762;59.878;17.686;2023-02-18T04:14:32;1.20;99.90
23188;DHT22;11762;59.878;17.686;2023-02-18T04:16:59;1.20;99.90
23188;DHT22;11762;59.878;17.686;2023-02-18T04:19:27;1.10;99.90
23188;DHT22;11762;59.878;17.686;2023-02-18T04:21:54;1.20;99.90
23188;DHT22;11762;59.878;17.686;2023-02-18T04:24:21;1.10;99.90
23188;DHT22;11762;59.878;17.686;2023-02-18T04:26:48;1.10;99.90
23188;DHT22;11762;59.878;17.686;2023-02-18T04:29:16;1.10;99.90
23188;DHT22;11762;59.878;17.686;2023-02-18T04:31:43;1.10;99.90
23188;DHT22;11762;59.878;17.686;2023-02-18T04:34:10;1.10;99.90
23188;DHT22;11762;59.878;17.686;2023-02-18T04:36:37;1.10;99.90
23188;DHT22;11762;59.878;17.686;2023-02-18T04:39:04;1.10;99.90
23188;DHT22;11762;59.878;17.686;2023-02-18T04:41:31;1.10;99.90
23188;DHT22;11762;59.878;17.686;2023-02-18T04:43:58;1.20;99.90
23188;DHT22;11762;59.878;17.686;2023-02-18T04:46:27;1.20;99.90
23188;DHT22;11762;59.878;17.686;2023-02-18T04:48:54;1.20;99.90
23188;DHT22;11762;59.878;17.686;2023-02-18T04:51:21;1.20;99.90
23188;DHT22;11762;59.878;17.686;2023-02-18T04:53:49;1.20;99.90
23188;DHT22;11762;59.878;17.686;2023-02-18T04:56:16;1.20;99.90
23188;DHT22;11762;59.878;17.686;2023-02-18T04:58:42;1.30;99.90
23188;DHT22;11762;59.878;17.686;2023-02-18T05:01:10;1.30;99.90
23188;DHT22;11762;59.878;17.686;2023-02-18T05:03:38;1.30;99.90
23188;DHT22;11762;59.878;17.686;2023-02-18T05:06:05;1.30;99.90
23188;DHT22;11762;59.878;17.686;2023-02-18T05:08:33;1.30;99.90
23188;DHT22;11762;59.878;17.686;2023-02-18T05:11:03;1.30;99.90
23188;DHT22;11762;59.878;17.686;2023-02-18T05:13:30;1.30;99.90
23188;DHT22;11762;59.878;17.686;2023-02-18T05:15:58;1.30;99.90
23188;DHT22;11762;59.878;17.686;2023-02-18T05:18:25;1.40;99.90
23188;DHT22;11762;59.878;17.686;2023-02-18T05:20:54;1.40;99.90
23188;DHT22;11762;59.878;17.686;2023-02-18T05:23:21;1.40;99.90
23188;DHT22;11762;59.878;17.686;2023-02-18T05:25:49;1.40;99.90
23188;DHT22;11762;59.878;17.686;2023-02-18T05:28:16;1.40;99.90
23188;DHT22;11762;59.878;17.686;2023-02-18T05:30:43;1.40;99.90
23188;DHT22;11762;59.878;17.686;2023-02-18T05:33:10;1.40;99.90
23188;DHT22;11762;59.878;17.686;2023-02-18T05:35:37;1.40;99.90
23188;DHT22;11762;59.878;17.686;2023-02-18T05:38:05;1.30;99.90
23188;DHT22;11762;59.878;17.686;2023-02-18T05:40:33;1.30;99.90
23188;DHT22;11762;59.878;17.686;2023-02-18T05:43:00;1.30;99.90
23188;DHT22;11762;59.878;17.686;2023-02-18T05:45:27;1.30;99.90
23188;DHT22;11762;59.878;17.686;2023-02-18T05:47:54;1.30;99.90
23188;DHT22;11762;59.878;17.686;2023-02-18T05:50:21;1.30;99.90
23188;DHT22;11762;59.878;17.686;2023-02-18T05:52:48;1.30;99.90
23188;DHT22;11762;59.878;17.686;2023-02-18T05:55:17;1.30;99.90
23188;DHT22;11762;59.878;17.686;2023-02-18T05:57:44;1.30;99.90
23188;DHT22;11762;59.878;17.686;2023-02-18T06:00:11;1.30;99.90
23188;DHT22;11762;59.878;17.686;2023-02-18T06:02:39;1.30;99.90
23188;DHT22;11762;59.878;17.686;2023-02-18T06:05:07;1.30;99.90
23188;DHT22;11762;59.878;17.686;2023-02-18T06:07:34;1.20;99.90
23188;DHT22;11762;59.878;17.686;2023-02-18T06:10:02;1.20;99.90
23188;DHT22;11762;59.878;17.686;2023-02-18T06:12:30;1.20;99.90
23188;DHT22;11762;59.878;17.686;2023-02-18T06:14:57;1.20;99.90
23188;DHT22;11762;59.878;17.686;2023-02-18T06:17:24;1.30;99.90
23188;DHT22;11762;59.878;17.686;2023-02-18T06:19:51;1.30;99.90
23188;DHT22;11762;59.878;17.686;2023-02-18T06:22:18;1.30;99.90
23188;DHT22;11762;59.878;17.686;2023-02-18T06:24:45;1.30;99.90
23188;DHT22;11762;59.878;17.686;2023-02-18T06:27:12;1.30;99.90
23188;DHT22;11762;59.878;17.686;2023-02-18T06:29:41;1.30;99.90
23188;DHT22;11762;59.878;17.686;2023-02-18T06:32:08;1.30;99.90
23188;DHT22;11762;59.878;17.686;2023-02-18T06:34:35;1.30;99.90
23188;DHT22;11762;59.878;17.686;2023-02-18T06:37:02;1.20;99.90
23188;DHT22;11762;59.878;17.686;2023-02-18T06:39:29;1.20;99.90
23188;DHT22;11762;59.878;17.686;2023-02-18T06:41:56;1.30;99.90
23188;DHT22;11762;59.878;17.686;2023-02-18T06:44:23;1.30;99.90
23188;DHT22;11762;59.878;17.686;2023-02-18T06:46:51;1.30;99.90
23188;DHT22;11762;59.878;17.686;2023-02-18T06:49:18;1.30;99.90
23188;DHT22;11762;59.878;17.686;2023-02-18T06:51:45;1.30;99.90
23188;DHT22;11762;59.878;17.686;2023-02-18T06:54:12;1.40;99.90
23188;DHT22;11762;59.878;17.686;2023-02-18T06:56:39;1.40;99.90
23188;DHT22;11762;59.878;17.686;2023-02-18T06:59:06;1.40;99.90
23188;DHT22;11762;59.878;17.686;2023-02-18T07:01:34;1.40;99.90
23188;DHT22;11762;59.878;17.686;2023-02-18T07:04:02;1.40;99.90
23188;DHT22;11762;59.878;17.686;2023-02-18T07:06:29;1.50;99.90
23188;DHT22;11762;59.878;17.686;2023-02-18T07:08:59;1.50;99.90
23188;DHT22;11762;59.878;17.686;2023-02-18T07:11:26;1.50;99.90
23188;DHT22;11762;59.878;17.686;2023-02-18T07:13:53;1.50;99.90
23188;DHT22;11762;59.878;17.686;2023-02-18T07:16:20;1.50;99.90
23188;DHT22;11762;59.878;17.686;2023-02-18T07:18:47;1.50;99.90
23188;DHT22;11762;59.878;17.686;2023-02-18T07:21:16;1.50;99.90
23188;DHT22;11762;59.878;17.686;2023-02-18T07:23:43;1.50;99.90
23188;DHT22;11762;59.878;17.686;2023-02-18T07:26:11;1.50;99.90
23188;DHT22;11762;59.878;17.686;2023-02-18T07:28:38;1.50;99.90
23188;DHT22;11762;59.878;17.686;2023-02-18T07:31:07;1.50;99.90
23188;DHT22;11762;59.878;17.686;2023-02-18T07:33:34;1.40;99.90
23188;DHT22;11762;59.878;17.686;2023-02-18T07:36:01;1.40;99.90
23188;DHT22;11762;59.878;17.686;2023-02-18T07:38:30;1.40;99.90
23188;DHT22;11762;59.878;17.686;2023-02-18T07:40:58;1.40;99.90
23188;DHT22;11762;59.878;17.686;2023-02-18T07:43:25;1.40;99.90
23188;DHT22;11762;59.878;17.686;2023-02-18T07:45:52;1.40;99.90
23188;DHT22;11762;59.878;17.686;2023-02-18T07:48:20;1.50;99.90
23188;DHT22;11762;59.878;17.686;2023-02-18T07:50:47;1.50;99.90
23188;DHT22;11762;59.878;17.686;2023-02-18T07:53:15;1.50;99.90
23188;DHT22;11762;59.878;17.686;2023-02-18T07:55:43;1.50;99.90
23188;DHT22;11762;59.878;17.686;2023-02-18T07:58:17;1.50;99.90
23188;DHT22;11762;59.878;17.686;2023-02-18T08:00:44;1.50;99.90
23188;DHT22;11762;59.878;17.686;2023-02-18T08:03:14;1.50;99.90
23188;DHT22;11762;59.878;17.686;2023-02-18T08:05:41;1.50;99.90
23188;DHT22;11762;59.878;17.686;2023-02-18T08:08:12;1.60;99.90
23188;DHT22;11762;59.878;17.686;2023-02-18T08:10:39;1.60;99.90
23188;DHT22;11762;59.878;17.686;2023-02-18T08:13:08;1.60;99.90
23188;DHT22;11762;59.878;17.686;2023-02-18T08:15:35;1.60;99.90
23188;DHT22;11762;59.878;17.686;2023-02-18T08:18:03;1.60;99.90
23188;DHT22;11762;59.878;17.686;2023-02-18T08:20:30;1.60;99.90
23188;DHT22;11762;59.878;17.686;2023-02-18T08:22:57;1.70;99.90
23188;DHT22;11762;59.878;17.686;2023-02-18T08:25:24;1.70;99.90
23188;DHT22;11762;59.878;17.686;2023-02-18T08:27:51;1.70;99.90
23188;DHT22;11762;59.878;17.686;2023-02-18T08:30:20;1.70;99.90
23188;DHT22;11762;59.878;17.686;2023-02-18T08:32:47;1.70;99.90
23188;DHT22;11762;59.878;17.686;2023-02-18T08:35:14;1.70;99.90
23188;DHT22;11762;59.878;17.686;2023-02-18T08:37:41;1.70;99.90
23188;DHT22;11762;59.878;17.686;2023-02-18T08:40:11;1.80;99.90
23188;DHT22;11762;59.878;17.686;2023-02-18T08:42:38;1.80;99.90
23188;DHT22;11762;59.878;17.686;2023-02-18T08:45:06;1.90;99.90
23188;DHT22;11762;59.878;17.686;2023-02-18T08:47:35;2.00;99.90
23188;DHT22;11762;59.878;17.686;2023-02-18T08:50:02;2.00;99.90
23188;DHT22;11762;59.878;17.686;2023-02-18T08:52:29;2.10;99.90
23188;DHT22;11762;59.878;17.686;2023-02-18T08:54:56;2.10;99.90
23188;DHT22;11762;59.878;17.686;2023-02-18T08:57:23;2.10;99.90
23188;DHT22;11762;59.878;17.686;2023-02-18T08:59:50;2.20;99.90
23188;DHT22;11762;59.878;17.686;2023-02-18T09:02:17;2.20;99.90
23188;DHT22;11762;59.878;17.686;2023-02-18T09:04:46;2.20;99.90
23188;DHT22;11762;59.878;17.686;2023-02-18T09:07:13;2.10;99.90
23188;DHT22;11762;59.878;17.686;2023-02-18T09:09:40;2.10;99.90
23188;DHT22;11762;59.878;17.686;2023-02-18T09:12:07;2.10;99.90
23188;DHT22;11762;59.878;17.686;2023-02-18T09:14:35;2.10;99.90
23188;DHT22;11762;59.878;17.686;2023-02-18T09:17:01;2.20;99.90
23188;DHT22;11762;59.878;17.686;2023-02-18T09:19:29;2.20;99.90
23188;DHT22;11762;59.878;17.686;2023-02-18T09:21:57;2.20;99.90
23188;DHT22;11762;59.878;17.686;2023-02-18T09:24:24;2.30;99.90
23188;DHT22;11762;59.878;17.686;2023-02-18T09:26:51;2.30;99.90
23188;DHT22;11762;59.878;17.686;2023-02-18T09:29:18;2.40;99.90
23188;DHT22;11762;59.878;17.686;2023-02-18T09:31:45;2.40;99.90
23188;DHT22;11762;59.878;17.686;2023-02-18T09:34:12;2.50;99.90
23188;DHT22;11762;59.878;17.686;2023-02-18T18:02:11;1.60;99.90
23188;DHT22;11762;59.878;17.686;2023-02-18T18:04:49;1.60;99.90
23188;DHT22;11762;59.878;17.686;2023-02-18T18:07:16;1.50;99.90
23188;DHT22;11762;59.878;17.686;2023-02-18T18:09:43;1.40;99.90
23188;DHT22;11762;59.878;17.686;2023-02-18T18:12:13;1.40;99.90
23188;DHT22;11762;59.878;17.686;2023-02-18T18:14:40;1.30;99.90
23188;DHT22;11762;59.878;17.686;2023-02-18T18:17:10;1.30;99.90
23188;DHT22;11762;59.878;17.686;2023-02-18T18:19:37;1.30;99.90
23188;DHT22;11762;59.878;17.686;2023-02-18T18:22:05;1.30;99.90
23188;DHT22;11762;59.878;17.686;2023-02-18T18:24:33;1.20;99.90
23188;DHT22;11762;59.878;17.686;2023-02-18T18:27:00;1.30;99.90
23188;DHT22;11762;59.878;17.686;2023-02-18T18:29:27;1.20;99.90
23188;DHT22;11762;59.878;17.686;2023-02-18T18:31:54;1.20;99.90
23188;DHT22;11762;59.878;17.686;2023-02-18T18:34:22;1.10;99.90
23188;DHT22;11762;59.878;17.686;2023-02-18T18:36:49;1.10;99.90
23188;DHT22;11762;59.878;17.686;2023-02-18T18:39:17;1.10;99.90
23188;DHT22;11762;59.878;17.686;2023-02-18T18:41:47;1.10;99.90
23188;DHT22;11762;59.878;17.686;2023-02-18T18:44:14;1.10;99.90
23188;DHT22;11762;59.878;17.686;2023-02-18T18:46:41;1.00;99.90
23188;DHT22;11762;59.878;17.686;2023-02-18T18:49:08;1.00;99.90
23188;DHT22;11762;59.878;17.686;2023-02-18T18:51:36;1.10;99.90
23188;DHT22;11762;59.878;17.686;2023-02-18T18:54:04;1.00;99.90
23188;DHT22;11762;59.878;17.686;2023-02-18T18:56:31;1.00;99.90
23188;DHT22;11762;59.878;17.686;2023-02-18T18:58:58;1.00;99.90
23188;DHT22;11762;59.878;17.686;2023-02-18T19:01:25;1.00;99.90
23188;DHT22;11762;59.878;17.686;2023-02-18T19:03:53;0.90;99.90
23188;DHT22;11762;59.878;17.686;2023-02-18T19:06:20;0.90;99.90
23188;DHT22;11762;59.878;17.686;2023-02-18T19:08:49;0.90;99.90
23188;DHT22;11762;59.878;17.686;2023-02-18T19:11:16;0.90;99.90
23188;DHT22;11762;59.878;17.686;2023-02-18T19:13:43;0.90;99.90
23188;DHT22;11762;59.878;17.686;2023-02-18T19:16:15;0.90;99.90
23188;DHT22;11762;59.878;17.686;2023-02-18T19:18:45;0.80;99.90
23188;DHT22;11762;59.878;17.686;2023-02-18T19:21:12;0.90;99.90
23188;DHT22;11762;59.878;17.686;2023-02-18T19:23:39;0.90;99.90
23188;DHT22;11762;59.878;17.686;2023-02-18T19:26:08;0.90;99.90
23188;DHT22;11762;59.878;17.686;2023-02-18T19:28:35;0.90;99.90
23188;DHT22;11762;59.878;17.686;2023-02-18T19:31:06;0.90;99.90
23188;DHT22;11762;59.878;17.686;2023-02-18T19:33:35;0.90;99.90
23188;DHT22;11762;59.878;17.686;2023-02-18T19:36:05;1.00;99.90
23188;DHT22;11762;59.878;17.686;2023-02-18T19:38:33;0.90;99.90
23188;DHT22;11762;59.878;17.686;2023-02-18T19:41:05;0.90;99.90
23188;DHT22;11762;59.878;17.686;2023-02-18T19:43:34;0.80;99.90
23188;DHT22;11762;59.878;17.686;2023-02-18T19:46:07;0.80;99.90
23188;DHT22;11762;59.878;17.686;2023-02-18T19:48:34;0.70;99.90
23188;DHT22;11762;59.878;17.686;2023-02-18T19:51:02;0.70;99.90
23188;DHT22;11762;59.878;17.686;2023-02-18T19:53:29;0.70;99.90
23188;DHT22;11762;59.878;17.686;2023-02-18T19:55:57;0.70;99.90
23188;DHT22;11762;59.878;17.686;2023-02-18T19:58:25;0.70;99.90
23188;DHT22;11762;59.878;17.686;2023-02-18T20:00:55;0.70;99.90
23188;DHT22;11762;59.878;17.686;2023-02-18T20:03:23;0.70;99.90
23188;DHT22;11762;59.878;17.686;2023-02-18T20:05:50;0.70;99.90
23188;DHT22;11762;59.878;17.686;2023-02-18T20:08:17;0.70;99.90
23188;DHT22;11762;59.878;17.686;2023-02-18T20:10:44;0.70;99.90
23188;DHT22;11762;59.878;17.686;2023-02-18T20:13:11;0.60;99.90
23188;DHT22;11762;59.878;17.686;2023-02-18T20:15:39;0.60;99.90
23188;DHT22;11762;59.878;17.686;2023-02-18T20:18:11;0.60;99.90
23188;DHT22;11762;59.878;17.686;2023-02-18T20:20:38;0.50;99.90
23188;DHT22;11762;59.878;17.686;2023-02-18T20:23:05;0.40;99.90
23188;DHT22;11762;59.878;17.686;2023-02-18T20:25:32;0.40;99.90
23188;DHT22;11762;59.878;17.686;2023-02-18T20:27:59;0.40;99.90
23188;DHT22;11762;59.878;17.686;2023-02-18T20:30:26;0.30;99.90
23188;DHT22;11762;59.878;17.686;2023-02-18T20:32:55;0.30;99.90
23188;DHT22;11762;59.878;17.686;2023-02-18T20:35:23;0.30;99.90
23188;DHT22;11762;59.878;17.686;2023-02-18T20:37:50;0.20;99.90
23188;DHT22;11762;59.878;17.686;2023-02-18T20:40:18;0.20;99.90
23188;DHT22;11762;59.878;17.686;2023-02-18T20:42:45;0.20;99.90
23188;DHT22;11762;59.878;17.686;2023-02-18T20:45:12;0.20;99.90
23188;DHT22;11762;59.878;17.686;2023-02-18T20:47:39;0.20;99.90
23188;DHT22;11762;59.878;17.686;2023-02-18T20:50:06;0.10;99.90
23188;DHT22;11762;59.878;17.686;2023-02-18T20:52:35;0.10;99.90
23188;DHT22;11762;59.878;17.686;2023-02-18T20:55:02;0.10;99.90
23188;DHT22;11762;59.878;17.686;2023-02-18T20:57:29;0.10;99.90
23188;DHT22;11762;59.878;17.686;2023-02-18T20:59:56;0.10;99.90
23188;DHT22;11762;59.878;17.686;2023-02-18T21:02:24;0.10;99.90
23188;DHT22;11762;59.878;17.686;2023-02-18T21:04:52;0.10;99.90
23188;DHT22;11762;59.878;17.686;2023-02-18T21:07:19;0.00;99.90
23188;DHT22;11762;59.878;17.686;2023-02-18T21:09:48;0.00;99.90
23188;DHT22;11762;59.878;17.686;2023-02-18T21:12:15;-0.10;99.90
23188;DHT22;11762;59.878;17.686;2023-02-18T21:14:42;-0.10;99.90
23188;DHT22;11762;59.878;17.686;2023-02-18T21:17:09;-0.10;99.90
23188;DHT22;11762;59.878;17.686;2023-02-18T21:19:36;-0.10;99.90
23188;DHT22;11762;59.878;17.686;2023-02-18T21:22:03;-0.10;99.90
23188;DHT22;11762;59.878;17.686;2023-02-18T21:24:30;-0.10;99.90
23188;DHT22;11762;59.878;17.686;2023-02-18T21:26:58;-0.10;99.90
23188;DHT22;11762;59.878;17.686;2023-02-18T21:29:25;-0.20;99.90
23188;DHT22;11762;59.878;17.686;2023-02-18T21:31:53;-0.20;99.90
23188;DHT22;11762;59.878;17.686;2023-02-18T21:34:20;-0.20;99.90
23188;DHT22;11762;59.878;17.686;2023-02-18T21:36:47;-0.20;99.90
23188;DHT22;11762;59.878;17.686;2023-02-18T21:39:14;-0.30;99.90
23188;DHT22;11762;59.878;17.686;2023-02-18T21:41:41;-0.20;99.90
23188;DHT22;11762;59.878;17.686;2023-02-18T21:44:09;-0.20;99.90
23188;DHT22;11762;59.878;17.686;2023-02-18T21:46:38;-0.20;99.90
23188;DHT22;11762;59.878;17.686;2023-02-18T21:49:05;-0.30;99.90
23188;DHT22;11762;59.878;17.686;2023-02-18T21:51:36;-0.30;99.90
23188;DHT22;11762;59.878;17.686;2023-02-18T21:54:23;-0.30;99.90
23188;DHT22;11762;59.878;17.686;2023-02-18T21:56:51;-0.30;99.90
23188;DHT22;11762;59.878;17.686;2023-02-18T21:59:21;-0.30;99.90
23188;DHT22;11762;59.878;17.686;2023-02-18T22:01:48;-0.40;99.90
23188;DHT22;11762;59.878;17.686;2023-02-18T22:04:15;-0.40;99.90
23188;DHT22;11762;59.878;17.686;2023-02-18T22:06:42;-0.40;99.90
23188;DHT22;11762;59.878;17.686;2023-02-18T22:09:10;-0.50;99.90
23188;DHT22;11762;59.878;17.686;2023-02-18T22:11:39;-0.50;99.90
23188;DHT22;11762;59.878;17.686;2023-02-18T22:14:06;-0.60;99.90
23188;DHT22;11762;59.878;17.686;2023-02-18T22:16:35;-0.60;99.90
23188;DHT22;11762;59.878;17.686;2023-02-18T22:19:03;-0.60;99.90
23188;DHT22;11762;59.878;17.686;2023-02-18T22:21:30;-0.60;99.90
23188;DHT22;11762;59.878;17.686;2023-02-18T22:23:57;-0.60;99.90
23188;DHT22;11762;59.878;17.686;2023-02-18T22:26:24;-0.60;99.90
23188;DHT22;11762;59.878;17.686;2023-02-18T22:28:51;-0.60;99.90
23188;DHT22;11762;59.878;17.686;2023-02-18T22:31:19;-0.70;99.90
23188;DHT22;11762;59.878;17.686;2023-02-18T22:33:48;-0.70;99.90
23188;DHT22;11762;59.878;17.686;2023-02-18T22:36:18;-0.80;99.90
23188;DHT22;11762;59.878;17.686;2023-02-18T22:38:45;-0.80;99.90
23188;DHT22;11762;59.878;17.686;2023-02-18T22:41:14;-0.80;99.90
23188;DHT22;11762;59.878;17.686;2023-02-18T22:43:41;-0.80;99.90
23188;DHT22;11762;59.878;17.686;2023-02-18T22:46:11;-0.80;99.90
23188;DHT22;11762;59.878;17.686;2023-02-18T22:48:39;-0.80;99.90
23188;DHT22;11762;59.878;17.686;2023-02-18T22:51:09;-0.90;99.90
23188;DHT22;11762;59.878;17.686;2023-02-18T22:53:37;-0.90;99.90
23188;DHT22;11762;59.878;17.686;2023-02-18T22:56:06;-1.00;99.90
23188;DHT22;11762;59.878;17.686;2023-02-18T22:58:34;-1.00;99.90
23188;DHT22;11762;59.878;17.686;2023-02-18T23:01:02;-1.00;99.90
23188;DHT22;11762;59.878;17.686;2023-02-18T23:03:29;-1.00;99.90
23188;DHT22;11762;59.878;17.686;2023-02-18T23:06:00;-1.10;99.90
23188;DHT22;11762;59.878;17.686;2023-02-18T23:08:31;-1.00;99.90
23188;DHT22;11762;59.878;17.686;2023-02-18T23:10:59;-1.00;99.90
23188;DHT22;11762;59.878;17.686;2023-02-18T23:13:26;-1.10;99.90
23188;DHT22;11762;59.878;17.686;2023-02-18T23:15:57;-1.10;99.90
23188;DHT22;11762;59.878;17.686;2023-02-18T23:18:25;-1.20;99.90
23188;DHT22;11762;59.878;17.686;2023-02-18T23:20:52;-1.20;99.90
23188;DHT22;11762;59.878;17.686;2023-02-18T23:23:45;-1.20;99.90
23188;DHT22;11762;59.878;17.686;2023-02-18T23:26:12;-1.20;99.90
23188;DHT22;11762;59.878;17.686;2023-02-18T23:28:40;-1.20;99.90
23188;DHT22;11762;59.878;17.686;2023-02-18T23:31:17;-1.20;99.90
23188;DHT22;11762;59.878;17.686;2023-02-18T23:33:44;-1.20;99.90
23188;DHT22;11762;59.878;17.686;2023-02-18T23:36:13;-1.20;99.90
23188;DHT22;11762;59.878;17.686;2023-02-18T23:38:40;-1.20;99.90
23188;DHT22;11762;59.878;17.686;2023-02-18T23:41:09;-1.20;99.90
23188;DHT22;11762;59.878;17.686;2023-02-18T23:43:36;-1.20;99.90
23188;DHT22;11762;59.878;17.686;2023-02-18T23:46:03;-1.20;99.90
23188;DHT22;11762;59.878;17.686;2023-02-18T23:48:32;-1.20;99.90
23188;DHT22;11762;59.878;17.686;2023-02-18T23:50:59;-1.20;99.90
23188;DHT22;11762;59.878;17.686;2023-02-18T23:53:27;-1.30;99.90
23188;DHT22;11762;59.878;17.686;2023-02-18T23:56:04;-1.30;99.90
23188;DHT22;11762;59.878;17.686;2023-02-18T23:58:34;-1.20;99.90
